createdAt,value
2024-04-07T00:00:02.303Z,9.350000381
2024-04-07T00:05:02.644Z,9.49001503
2024-04-07T00:10:03.704Z,9.610010147
2024-04-07T00:15:02.971Z,9.330011368
2024-04-07T00:20:02.443Z,9.670007706
2024-04-07T00:25:02.678Z,9.330011368
2024-04-07T00:30:03.259Z,9.209985733
2024-04-07T00:35:02.530Z,9.249994278
2024-04-07T00:40:02.930Z,9.209985733
2024-04-07T00:45:02.189Z,9.029993057
2024-04-07T00:50:02.444Z,8.969995499
2024-04-07T00:55:02.668Z,8.790002823
2024-04-07T01:00:03.161Z,9.010004044
2024-04-07T01:05:02.529Z,8.830011368
2024-04-07T01:10:02.815Z,8.790002823
2024-04-07T01:15:03.323Z,8.890008926
2024-04-07T01:20:02.638Z,9.429986954
2024-04-07T01:25:02.973Z,9.850000381
2024-04-07T01:30:02.340Z,10.3699894
2024-04-07T01:35:02.807Z,10.23000526
2024-04-07T01:40:03.134Z,10.08999062
2024-04-07T01:45:02.350Z,10.4699955
2024-04-07T01:50:02.722Z,10.27001381
2024-04-07T01:55:03.038Z,10.18999672
2024-04-07T02:00:02.260Z,10.95000648
2024-04-07T02:05:02.560Z,13.14998817
2024-04-07T02:10:02.851Z,14.30999184
2024-04-07T02:15:03.084Z,14.51000404
2024-04-07T02:20:02.445Z,14.85000038
2024-04-07T02:25:02.997Z,14.39000893
2024-04-07T02:30:02.338Z,15.35000038
2024-04-07T02:35:02.897Z,15.40999794
2024-04-07T02:40:02.170Z,15.08999062
2024-04-07T02:45:02.426Z,15.18999672
2024-04-07T02:50:02.794Z,15.51000404
2024-04-07T02:55:03.084Z,15.14998817
2024-04-07T03:00:02.425Z,15.24999428
2024-04-07T03:05:05.074Z,15.01000404
2024-04-07T03:10:02.968Z,15.01000404
2024-04-07T03:15:02.271Z,15.11001015
2024-04-07T03:20:02.577Z,15.08999062
2024-04-07T03:25:02.834Z,14.61001015
2024-04-07T03:30:03.171Z,14.39000893
2024-04-07T03:35:02.481Z,14.29000282
2024-04-07T03:40:02.793Z,13.95000648
2024-04-07T03:45:03.184Z,13.74999428
2024-04-07T03:50:02.495Z,13.17000771
2024-04-07T03:55:02.858Z,13.70998573
2024-04-07T04:00:03.201Z,13.45000648
2024-04-07T04:05:02.540Z,13.35000038
2024-04-07T04:10:02.857Z,13.35000038
2024-04-07T04:15:04.253Z,13.49001503
2024-04-07T04:20:02.620Z,13.11001015
2024-04-07T04:25:02.990Z,12.42998695
2024-04-07T04:30:02.333Z,11.33001137
2024-04-07T04:35:02.597Z,11.27001381
2024-04-07T04:40:02.946Z,11.3699894
2024-04-07T04:45:02.480Z,13.05001259
2024-04-07T04:50:02.819Z,13.24999428
2024-04-07T04:55:03.090Z,13.0700016
2024-04-07T05:00:02.501Z,12.95000648
2024-04-07T05:05:02.871Z,13.35000038
2024-04-07T05:10:03.070Z,13.51000404
2024-04-07T05:15:02.326Z,13.39000893
2024-04-07T05:20:02.648Z,13.51000404
2024-04-07T05:25:02.942Z,13.58999062
2024-04-07T05:30:02.362Z,13.51000404
2024-04-07T05:35:03.024Z,13.27001381
2024-04-07T05:40:04.028Z,13.20998573
2024-04-07T05:45:02.451Z,13.24999428
2024-04-07T05:50:02.707Z,13.70998573
2024-04-07T05:55:03.170Z,13.64998817
2024-04-07T06:00:02.453Z,14.05001259
2024-04-07T06:05:02.771Z,14.24999428
2024-04-07T06:10:03.109Z,13.58999062
2024-04-07T06:15:02.343Z,13.64998817
2024-04-07T06:20:02.690Z,13.64998817
2024-04-07T06:25:03.255Z,13.45000648
2024-04-07T06:30:02.667Z,13.39000893
2024-04-07T06:35:03.093Z,13.27001381
2024-04-07T06:40:02.328Z,13.20998573
2024-04-07T06:45:03.034Z,13.20998573
2024-04-07T06:50:02.300Z,13.35000038
2024-04-07T06:55:02.716Z,13.27001381
2024-04-07T07:00:02.976Z,13.90999794
2024-04-07T07:05:02.576Z,13.79000282
2024-04-07T07:10:03.016Z,11.74999428
2024-04-07T07:15:02.293Z,11.89000893
2024-04-07T07:20:02.584Z,12.83001137
2024-04-07T07:25:03.149Z,12.9699955
2024-04-07T07:30:02.392Z,12.8699894
2024-04-07T07:35:02.751Z,13.89000893
2024-04-07T07:40:03.089Z,12.67000771
2024-04-07T07:45:02.294Z,13.58999062
2024-04-07T07:50:02.757Z,13.40999794
2024-04-07T07:55:03.087Z,12.67000771
2024-04-07T08:00:14.427Z,13.58999062
2024-04-07T08:05:02.491Z,14.08999062
2024-04-07T08:10:02.819Z,14.35000038
2024-04-07T08:15:03.168Z,14.40999794
2024-04-07T08:20:02.769Z,14.51000404
2024-04-07T08:25:02.235Z,14.64998817
2024-04-07T08:30:02.707Z,14.14998817
2024-04-07T08:35:03.029Z,13.61001015
2024-04-07T08:40:02.324Z,14.05001259
2024-04-07T08:45:02.587Z,14.70998573
2024-04-07T08:50:03.050Z,15.14998817
2024-04-07T08:55:02.453Z,14.74999428
2024-04-07T09:00:02.948Z,13.05001259
2024-04-07T09:05:02.446Z,12.27001381
2024-04-07T09:10:02.905Z,12.08999062
2024-04-07T09:15:02.437Z,12.83001137
2024-04-07T09:20:02.808Z,12.67000771
2024-04-07T09:25:03.157Z,13.51000404
2024-04-07T09:30:02.455Z,14.01000404
2024-04-07T09:35:02.904Z,15.8699894
2024-04-07T09:40:02.259Z,14.61001015
2024-04-07T09:45:02.645Z,15.20998573
2024-04-07T09:50:03.012Z,14.99001503
2024-04-07T09:55:02.324Z,15.80999184
2024-04-07T10:00:02.598Z,17.5700016
2024-04-07T10:05:03.044Z,16.01000404
2024-04-07T10:10:02.332Z,15.74999428
2024-04-07T10:15:02.599Z,15.8699894
2024-04-07T10:20:02.948Z,15.80999184
2024-04-07T10:25:02.304Z,16.52999306
2024-04-07T10:30:02.681Z,16.95000648
2024-04-07T10:35:03.086Z,16.4699955
2024-04-07T10:40:02.492Z,16.27001381
2024-04-07T10:45:02.908Z,15.9699955
2024-04-07T10:50:02.266Z,16.5700016
2024-04-07T10:55:02.587Z,16.52999306
2024-04-07T11:00:03.028Z,17.33001137
2024-04-07T11:05:02.371Z,16.29000282
2024-04-07T11:10:02.752Z,19.5700016
2024-04-07T11:15:03.083Z,19.83001137
2024-04-07T11:20:02.395Z,18.64998817
2024-04-07T11:25:02.767Z,17.33001137
2024-04-07T11:30:03.050Z,17.89000893
2024-04-07T11:35:02.338Z,19.18999672
2024-04-07T11:40:02.747Z,18.08999062
2024-04-07T11:45:02.970Z,17.85000038
2024-04-07T11:50:02.351Z,19.12999916
2024-04-07T11:55:02.711Z,20.27001381
2024-04-07T12:00:03.111Z,18.68999672
2024-04-07T12:05:04.763Z,20.49001503
2024-04-07T12:10:03.090Z,20.51000404
2024-04-07T12:15:02.454Z,18.30999184
2024-04-07T12:20:02.810Z,20.08999062
2024-04-07T12:25:03.171Z,21.11001015
2024-04-07T12:30:02.438Z,20.77001381
2024-04-07T12:35:02.747Z,21.23000526
2024-04-07T12:40:03.094Z,21.20998573
2024-04-07T12:45:02.390Z,20.23000526
2024-04-07T12:50:02.793Z,21.79000282
2024-04-07T12:55:03.208Z,19.02999306
2024-04-07T13:00:02.562Z,18.11001015
2024-04-07T13:05:02.901Z,18.70998573
2024-04-07T13:10:02.237Z,19.8699894
2024-04-07T13:15:07.799Z,18.90999794
2024-04-07T13:20:02.531Z,20.27001381
2024-04-07T13:25:02.843Z,20.92998695
2024-04-07T13:30:03.127Z,17.99001503
2024-04-07T13:35:02.409Z,19.61001015
2024-04-07T13:40:02.697Z,19.61001015
2024-04-07T13:45:03.033Z,21.5700016
2024-04-07T13:50:02.280Z,19.45000648
2024-04-07T13:55:02.589Z,17.58999062
2024-04-07T14:00:02.949Z,16.74999428
2024-04-07T14:05:02.301Z,16.42998695
2024-04-07T14:10:02.643Z,15.80999184
2024-04-07T14:15:02.935Z,18.52999306
2024-04-07T14:20:02.302Z,17.33001137
2024-04-07T14:25:02.648Z,17.73000526
2024-04-07T14:30:02.902Z,18.27001381
2024-04-07T14:35:02.347Z,18.3699894
2024-04-07T14:40:02.654Z,18.30999184
2024-04-07T14:45:02.939Z,18.24999428
2024-04-07T14:50:02.375Z,17.92998695
2024-04-07T14:55:02.832Z,17.14998817
2024-04-07T15:00:03.120Z,17.17000771
2024-04-07T15:05:02.465Z,17.83001137
2024-04-07T15:10:02.780Z,18.11001015
2024-04-07T15:15:03.106Z,17.68999672
2024-04-07T15:20:02.449Z,18.4699955
2024-04-07T15:25:02.760Z,17.52999306
2024-04-07T15:30:03.132Z,17.51000404
2024-04-07T15:35:02.448Z,16.90999794
2024-04-07T15:40:02.965Z,17.42998695
2024-04-07T15:45:02.296Z,16.99001503
2024-04-07T15:50:02.673Z,16.12999916
2024-04-07T15:55:03.262Z,16.02999306
2024-04-07T16:00:02.673Z,16.90999794
2024-04-07T16:05:03.138Z,17.01000404
2024-04-07T16:10:03.266Z,17.40999794
2024-04-07T16:15:02.701Z,17.14998817
2024-04-07T16:20:03.678Z,16.42998695
2024-04-07T16:25:03.590Z,14.95000648
2024-04-07T16:30:03.219Z,16.73000526
2024-04-07T16:35:03.140Z,17.11001015
2024-04-07T16:40:02.710Z,16.99001503
2024-04-07T16:45:03.303Z,16.68999672
2024-04-07T16:50:03.146Z,16.68999672
2024-04-07T16:55:03.271Z,16.74999428
2024-04-07T17:00:03.140Z,16.4699955
2024-04-07T17:05:03.029Z,16.5700016
2024-04-07T17:10:03.003Z,16.73000526
2024-04-07T17:15:03.041Z,16.39000893
2024-04-07T17:20:02.618Z,16.52999306
2024-04-07T17:25:03.490Z,16.62999916
2024-04-07T17:30:02.824Z,16.52999306
2024-04-07T17:35:03.154Z,16.33001137
2024-04-07T17:40:02.421Z,16.4699955
2024-04-07T17:45:02.735Z,16.5700016
2024-04-07T17:50:03.119Z,16.3699894
2024-04-07T17:55:02.462Z,16.23000526
2024-04-07T18:00:02.789Z,16.23000526
2024-04-07T18:05:03.152Z,16.33001137
2024-04-07T18:10:02.485Z,15.92998695
2024-04-07T18:15:02.810Z,16.02999306
2024-04-07T18:20:03.085Z,15.9699955
2024-04-07T18:25:02.392Z,16.17000771
2024-04-07T18:30:02.706Z,16.23000526
2024-04-07T18:35:02.991Z,16.17000771
2024-04-07T18:40:02.305Z,15.9699955
2024-04-07T18:45:02.644Z,15.70998573
2024-04-07T18:50:02.929Z,15.14998817
2024-04-07T18:55:02.542Z,15.3699894
2024-04-07T19:00:02.911Z,14.55001259
2024-04-07T19:05:02.335Z,14.90999794
2024-04-07T19:10:02.609Z,14.70998573
2024-04-07T19:15:03.027Z,14.58999062
2024-04-07T19:20:02.319Z,14.64998817
2024-04-07T19:25:02.605Z,14.89000893
2024-04-07T19:30:02.866Z,14.90999794
2024-04-07T19:35:03.163Z,15.01000404
2024-04-07T19:40:02.427Z,14.89000893
2024-04-07T19:45:03.070Z,14.74999428
2024-04-07T19:50:02.401Z,14.68999672
2024-04-07T19:55:02.686Z,14.68999672
2024-04-07T20:00:03.012Z,14.61001015
2024-04-07T20:05:02.310Z,14.61001015
2024-04-07T20:10:02.781Z,14.80999184
2024-04-07T20:15:03.023Z,14.90999794
2024-04-07T20:20:02.368Z,14.49001503
2024-04-07T20:25:02.616Z,14.18999672
2024-04-07T20:30:02.939Z,14.24999428
2024-04-07T20:35:02.130Z,14.40999794
2024-04-07T20:40:03.678Z,14.35000038
2024-04-07T20:45:03.182Z,14.01000404
2024-04-07T20:50:02.385Z,13.85000038
2024-04-07T20:55:02.642Z,13.79000282
2024-04-07T21:00:02.915Z,13.74999428
2024-04-07T21:05:02.229Z,13.74999428
2024-04-07T21:10:02.486Z,13.64998817
2024-04-07T21:15:02.706Z,12.95000648
2024-04-07T21:20:03.091Z,13.39000893
2024-04-07T21:25:02.413Z,13.49001503
2024-04-07T21:30:03.771Z,13.61001015
2024-04-07T21:35:03.077Z,13.58999062
2024-04-07T21:40:02.447Z,13.55001259
2024-04-07T21:45:02.867Z,13.49001503
2024-04-07T21:50:03.244Z,13.40999794
2024-04-07T21:55:02.560Z,13.45000648
2024-04-07T22:00:02.996Z,13.39000893
2024-04-07T22:05:02.514Z,13.40999794
2024-04-07T22:10:02.884Z,13.20998573
2024-04-07T22:15:02.172Z,13.14998817
2024-04-07T22:20:02.530Z,13.17000771
2024-04-07T22:25:02.825Z,13.01000404
2024-04-07T22:30:03.159Z,12.83001137
2024-04-07T22:35:02.435Z,12.95000648
2024-04-07T22:40:02.727Z,12.95000648
2024-04-07T22:45:03.081Z,12.77001381
2024-04-07T22:50:02.465Z,12.90999794
2024-04-07T22:55:02.761Z,12.73000526
2024-04-07T23:00:03.103Z,12.73000526
2024-04-07T23:05:02.444Z,12.77001381
2024-04-07T23:10:02.817Z,12.73000526
2024-04-07T23:15:03.354Z,12.80999184
2024-04-07T23:20:02.690Z,12.80999184
2024-04-07T23:25:02.984Z,12.73000526
2024-04-07T23:30:02.256Z,12.77001381
2024-04-07T23:35:02.602Z,12.61001015
2024-04-07T23:40:02.915Z,12.42998695
2024-04-07T23:45:02.165Z,12.4699955
2024-04-07T23:50:02.486Z,12.42998695
2024-04-07T23:55:02.752Z,12.39000893
